»·PEaware :: N973SE KSMX-KBFL

N973SE :: KSMX-KBFL

FLIGHT INFORMATION

Flight Status: Arrived
Operator: Privately registered:
United States
More flights under this callsign
Pilot: Stig E. (4778)
Aircraft: CESSNA 172 SKYHAWK
(C172)
More flights by this aircraft type
Origin: KSMX Santa Maria Pub/Capt Hancock
United States
Destination: KBFL Meadows
United States
More flights between these airports :: More routes between these airports
Route: FLW WENTI
File this flight plan on PilotEdge
Remarks: +CW /
Altitude:
(Current/Filed)
7,500ft
Speed:
(Current/Filed)
110kts
Departed: 27-Feb-19 12:49 AM
Arrived: 27-Feb-19 01:38 AM
Distance/Time
Traveled:
76nm/0:48
Distance/Time
To Go:
Arrived

Flight Plot

Page will automatically refresh every two minutes.

Flight plan parsing failed; only flown route is shown


Map Options




Map Legend


Flown Route
Filed Route
Departure Airport
Arrival Airport
Navaid (VOR, NDB)
Fix

Horizontal Profiles

Position Reports

Time Latitude Longitude Heading Altitude Ground
Speed
27-Feb-19 00:40 34.895846 -120.445232 314 265ft 0kts
27-Feb-19 00:41 34.895846 -120.445232 314 265ft 0kts
27-Feb-19 00:42 34.895846 -120.445232 314 265ft 0kts
27-Feb-19 00:43 34.895846 -120.445232 314 265ft 0kts
27-Feb-19 00:44 34.895846 -120.445232 314 265ft 0kts
27-Feb-19 00:45 34.895846 -120.445232 314 265ft 0kts
27-Feb-19 00:46 34.895874 -120.445513 224 265ft 7kts
27-Feb-19 00:47 34.893422 -120.445220 185 265ft 0kts
27-Feb-19 00:48 34.896768 -120.450556 317 350ft 69kts
27-Feb-19 00:49 34.911682 -120.468715 324 1246ft 80kts
27-Feb-19 00:50 34.930245 -120.457833 43 2176ft 82kts
27-Feb-19 00:51 34.945493 -120.437371 83 2912ft 83kts
27-Feb-19 00:52 34.941099 -120.409440 102 3634ft 84kts
27-Feb-19 00:53 34.936072 -120.381408 102 4347ft 85kts
27-Feb-19 00:54 34.936361 -120.352732 75 5022ft 86kts
27-Feb-19 00:55 34.943947 -120.324985 69 5657ft 87kts
27-Feb-19 00:56 34.952800 -120.297314 68 6260ft 87kts
27-Feb-19 00:57 34.961886 -120.269462 68 6828ft 88kts
27-Feb-19 00:58 34.971047 -120.241431 68 7361ft 89kts
27-Feb-19 00:59 34.981608 -120.209083 68 7503ft 118kts
27-Feb-19 01:00 34.994337 -120.170047 68 7500ft 126kts
27-Feb-19 01:01 35.007483 -120.129701 68 7500ft 127kts
27-Feb-19 01:02 35.020560 -120.089500 68 7496ft 121kts
27-Feb-19 01:03 35.032341 -120.053238 68 7499ft 110kts
27-Feb-19 01:04 35.043656 -120.018390 68 7500ft 110kts
27-Feb-19 01:05 35.054959 -119.983531 68 7499ft 110kts
27-Feb-19 01:06 35.066254 -119.948657 68 7499ft 110kts
27-Feb-19 01:07 35.077596 -119.913602 68 7499ft 110kts
27-Feb-19 01:08 35.088903 -119.878651 68 7499ft 110kts
27-Feb-19 01:09 35.104685 -119.846677 54 7500ft 110kts
27-Feb-19 01:10 35.122555 -119.816226 53 7499ft 110kts
27-Feb-19 01:11 35.140869 -119.785233 53 7171ft 113kts
27-Feb-19 01:12 35.159330 -119.754051 53 6671ft 113kts
27-Feb-19 01:13 35.177893 -119.722702 53 6169ft 113kts
27-Feb-19 01:14 35.199284 -119.694946 39 5664ft 113kts
27-Feb-19 01:15 35.205100 -119.660489 84 5495ft 93kts
27-Feb-19 01:16 35.212410 -119.635139 24 5497ft 76kts
27-Feb-19 01:17 35.232956 -119.618313 41 5504ft 105kts
27-Feb-19 01:18 35.254700 -119.590883 49 5448ft 118kts
27-Feb-19 01:19 35.275758 -119.556934 53 4953ft 127kts
27-Feb-19 01:20 35.296619 -119.521603 53 4453ft 128kts
27-Feb-19 01:21 35.317577 -119.485992 53 3949ft 128kts
27-Feb-19 01:22 35.338437 -119.450510 53 3447ft 127kts
27-Feb-19 01:23 35.359284 -119.415013 53 2944ft 127kts
27-Feb-19 01:25 35.379982 -119.379733 53 2504ft 123kts
27-Feb-19 01:26 35.398681 -119.347843 54 2498ft 109kts
27-Feb-19 01:27 35.416051 -119.318189 54 2499ft 104kts
27-Feb-19 01:28 35.432991 -119.289240 54 2499ft 104kts
27-Feb-19 01:29 35.449958 -119.260220 54 2499ft 104kts
27-Feb-19 01:30 35.466839 -119.231322 54 2499ft 104kts
27-Feb-19 01:31 35.482332 -119.204774 54 2498ft 89kts
27-Feb-19 01:32 35.496488 -119.180517 54 2499ft 86kts
27-Feb-19 01:33 35.507541 -119.155480 105 2497ft 85kts
27-Feb-19 01:34 35.493597 -119.132338 132 2334ft 83kts
27-Feb-19 01:35 35.477649 -119.111871 134 1884ft 82kts
27-Feb-19 01:36 35.461093 -119.092785 135 1378ft 80kts
27-Feb-19 01:37 35.445637 -119.074050 134 702ft 71kts
27-Feb-19 01:38 35.434639 -119.060639 135 483ft 9kts
27-Feb-19 01:39 35.431522 -119.058084 135 477ft 26kts
27-Feb-19 01:40 35.428919 -119.055512 307 473ft 16kts

Navigation Log

Ident Type
Flight plan parsing failed, navigation log unavailable